LFPG/CDG METAR and TAF weather

Enter ICAO airport designator
Station Type Date Time Source
LFPG METAR 2019/02/20 23:30 UTC NOAA

LFPG 202330Z VRB02KT 7000 NSC 07/05 Q1025 NOSIG


Station Type Date Time Source
LFPG Decoded METAR 2019/02/20 23:30 UTC NOAA

Paris-Aeroport Charles De Gaulle, France (LFPG) 49-01N 002-32E 109M
Feb 20, 2019 - 06:30 PM EST / 2019.02.20 2330 UTC
Wind: Variable at 2 MPH (2 KT):0
Visibility: 4 mile(s):0
Temperature: 44 F (7 C)
Dew Point: 41 F (5 C)
Relative Humidity: 87%
Pressure (altimeter): 30.27 in. Hg (1025 hPa)
ob: LFPG 202330Z VRB02KT 7000 NSC 07/05 Q1025 NOSIG
cycle: 23

Station Type Date Time Source
LFPG TAF 2019/02/20 18:23 UTC NOAA

TAF LFPG 201700Z 2018/2124 16005KT CAVOK TX14/2115Z TN02/2105Z
TEMPO 2018/2118 VRB02KT
BECMG 2100/2102 3000 BR
TEMPO 2102/2110 0500 BCFG BKN001 PROB40 2106/2109 0300 FG VV///
BECMG 2110/2112 7000 NSW


Example: see airport list